Time;durP1;ratioP1;P1;durP2;ratioP2;P2;SDS_P1;SDS_P2;PMS_P1;PMS_P2;Temp;Humidity;BMP_temperature;BMP_pressure;BME280_temperature;BME280_humidity;BME280_pressure;Samples;Min_cycle;Max_cycle;Signal;HPM_P1;HPM_P2
2022/06/04 00:00:05;;;;;;;11.77;10.57;;;18.00;99.90;;;;;;4987048;28;20474;-77
2022/06/04 00:02:53;;;;;;;13.50;10.50;;;18.00;99.90;;;;;;4989367;28;20502;-77
2022/06/04 00:05:40;;;;;;;17.27;10.60;;;18.00;99.90;;;;;;5000379;28;20470;-77
2022/06/04 00:08:27;;;;;;;11.30;10.10;;;18.00;99.90;;;;;;4993980;28;20453;-77
2022/06/04 00:17:20;;;;;;;14.73;10.33;;;17.90;99.90;;;;;;4999170;28;20488;-77
2022/06/04 00:20:08;;;;;;;17.73;9.83;;;17.90;99.90;;;;;;4996270;28;20495;-76
2022/06/04 00:22:59;;;;;;;13.63;11.30;;;17.90;99.90;;;;;;4989040;28;20454;-77
2022/06/04 00:25:49;;;;;;;12.23;11.07;;;17.80;99.90;;;;;;4996073;28;20441;-77
2022/06/04 00:28:35;;;;;;;12.07;10.97;;;17.70;99.90;;;;;;4995056;28;20897;-77
2022/06/04 00:31:21;;;;;;;16.93;11.20;;;17.60;99.90;;;;;;4983311;28;20476;-77
2022/06/04 00:34:07;;;;;;;13.73;10.33;;;17.50;99.90;;;;;;4991781;28;20428;-77
2022/06/04 00:36:54;;;;;;;11.30;10.20;;;17.60;99.90;;;;;;4985876;28;20469;-77
2022/06/04 00:39:40;;;;;;;14.13;10.70;;;17.60;99.90;;;;;;5004382;28;20470;-77
2022/06/04 00:42:26;;;;;;;11.07;10.03;;;17.50;99.90;;;;;;4989350;28;20537;-77
2022/06/04 00:45:51;;;;;;;9.63;8.70;;;17.50;99.90;;;;;;5002474;28;20444;-77
2022/06/04 00:48:37;;;;;;;10.50;8.17;;;17.60;99.90;;;;;;4993992;28;20420;-77
2022/06/04 00:51:24;;;;;;;11.70;8.87;;;17.60;99.90;;;;;;4992252;28;20520;-77
2022/06/04 00:54:11;;;;;;;12.17;9.30;;;17.50;99.90;;;;;;4999217;28;20457;-77
2022/06/04 00:57:07;;;;;;;11.20;9.93;;;17.40;99.90;;;;;;4997287;28;20506;-77
2022/06/04 01:00:03;;;;;;;13.23;11.17;;;17.40;99.90;;;;;;4984825;28;20483;-77
2022/06/04 01:03:04;;;;;;;12.40;9.77;;;17.30;99.90;;;;;;4997309;28;20495;-77
2022/06/04 01:06:20;;;;;;;17.00;10.17;;;17.30;99.90;;;;;;4985874;28;20476;-77
2022/06/04 01:09:29;;;;;;;13.13;11.57;;;17.20;99.90;;;;;;4999192;28;20465;-77
2022/06/04 01:12:35;;;;;;;12.90;10.10;;;17.20;99.90;;;;;;4993221;28;20428;-77
2022/06/04 01:15:33;;;;;;;15.63;9.80;;;17.20;99.90;;;;;;4994810;28;20560;-77
2022/06/04 01:18:30;;;;;;;12.07;10.67;;;17.10;99.90;;;;;;4996270;28;20472;-77
2022/06/04 01:21:23;;;;;;;13.30;9.70;;;17.20;99.90;;;;;;4980641;28;20446;-77
2022/06/04 01:24:40;;;;;;;10.20;9.20;;;17.20;99.90;;;;;;4999080;28;20692;-77
2022/06/04 01:27:31;;;;;;;11.27;9.77;;;17.30;99.90;;;;;;5000422;28;20473;-77
2022/06/04 01:30:20;;;;;;;10.77;9.70;;;17.20;99.90;;;;;;4991527;28;20590;-77
2022/06/04 01:33:11;;;;;;;10.37;9.30;;;17.20;99.90;;;;;;4995055;28;20457;-77
2022/06/04 01:36:00;;;;;;;11.43;10.30;;;17.20;99.90;;;;;;4997700;28;20519;-77
2022/06/04 01:38:56;;;;;;;10.50;9.50;;;17.10;99.90;;;;;;4998904;28;20444;-77
2022/06/04 01:41:44;;;;;;;17.40;9.20;;;17.20;99.90;;;;;;4987544;28;20532;-77
2022/06/04 01:44:35;;;;;;;10.90;8.57;;;17.10;99.90;;;;;;4994965;28;20426;-77
2022/06/04 01:47:22;;;;;;;12.13;9.30;;;17.10;99.90;;;;;;5001714;28;20473;-77
2022/06/04 01:50:12;;;;;;;10.90;9.80;;;16.90;99.90;;;;;;4986605;28;20447;-77
2022/06/04 01:53:01;;;;;;;9.83;8.27;;;16.90;99.90;;;;;;4993737;28;20922;-77
2022/06/04 01:55:51;;;;;;;12.67;8.80;;;16.90;99.90;;;;;;4998173;28;20709;-77
2022/06/04 01:58:41;;;;;;;10.90;7.60;;;16.90;99.90;;;;;;4996744;28;20473;-77
2022/06/04 02:01:30;;;;;;;10.47;9.50;;;16.90;99.90;;;;;;4985468;28;20561;-77
2022/06/04 02:04:21;;;;;;;11.23;8.20;;;17.00;99.90;;;;;;4996446;28;20450;-77
2022/06/04 02:10:19;;;;;;;11.57;8.97;;;16.90;99.90;;;;;;4985357;28;20446;-77
2022/06/04 02:13:08;;;;;;;12.60;10.53;;;16.70;99.90;;;;;;4994829;28;20458;-77
2022/06/04 02:15:57;;;;;;;10.00;9.00;;;16.60;99.90;;;;;;4989899;28;20473;-77
2022/06/04 02:18:44;;;;;;;9.57;8.73;;;16.60;99.90;;;;;;4995169;28;20975;-77
2022/06/04 02:21:31;;;;;;;9.30;8.40;;;16.60;99.90;;;;;;4985994;28;20473;-77
2022/06/04 02:24:17;;;;;;;13.57;8.40;;;16.70;99.90;;;;;;4992444;28;20453;-77
2022/06/04 02:27:05;;;;;;;12.53;8.20;;;16.70;99.90;;;;;;4986287;28;20799;-77
2022/06/04 02:29:51;;;;;;;9.30;8.40;;;16.70;99.90;;;;;;4984611;28;20444;-77
2022/06/04 02:32:43;;;;;;;12.60;8.43;;;16.60;99.90;;;;;;4988528;28;20413;-77
2022/06/04 02:35:36;;;;;;;10.60;8.10;;;16.60;99.90;;;;;;4987243;28;22285;-77
2022/06/04 02:38:26;;;;;;;8.30;7.50;;;16.60;99.90;;;;;;4986015;28;20478;-77
2022/06/04 02:41:17;;;;;;;9.17;8.27;;;16.50;99.90;;;;;;4986152;28;20430;-78
2022/06/04 02:44:08;;;;;;;10.93;9.70;;;16.40;99.90;;;;;;4990969;28;20438;-77
2022/06/04 02:47:02;;;;;;;13.10;7.37;;;16.40;99.90;;;;;;4990597;28;20473;-77
2022/06/04 02:49:53;;;;;;;8.13;7.33;;;16.40;99.90;;;;;;4987352;28;20421;-77
2022/06/04 02:52:42;;;;;;;8.50;7.70;;;16.50;99.90;;;;;;4990094;28;20593;-77
2022/06/04 02:55:31;;;;;;;8.93;6.87;;;16.60;99.90;;;;;;4989951;28;20940;-78
2022/06/04 02:58:20;;;;;;;8.10;7.30;;;16.60;99.90;;;;;;4983334;28;20550;-77
2022/06/04 03:01:09;;;;;;;6.70;6.10;;;16.50;99.90;;;;;;4986248;28;20413;-77
2022/06/04 03:03:55;;;;;;;11.10;7.17;;;16.50;99.90;;;;;;4989678;28;20425;-77
2022/06/04 03:06:41;;;;;;;8.20;7.17;;;16.50;99.90;;;;;;4989343;28;20973;-77
2022/06/04 03:09:28;;;;;;;8.43;6.97;;;16.50;99.90;;;;;;4986861;28;20416;-77
2022/06/04 03:12:14;;;;;;;10.40;7.60;;;16.50;99.90;;;;;;4986598;28;20449;-77
2022/06/04 03:14:59;;;;;;;11.23;7.50;;;16.50;99.90;;;;;;4987203;28;20446;-77
2022/06/04 03:17:47;;;;;;;7.77;6.97;;;16.50;99.90;;;;;;4986987;28;20800;-77
2022/06/04 03:20:33;;;;;;;7.03;6.17;;;16.60;99.90;;;;;;4987408;28;20815;-76
2022/06/04 03:23:18;;;;;;;10.20;6.13;;;16.70;99.90;;;;;;4987301;28;20818;-77
2022/06/04 03:26:05;;;;;;;14.73;7.10;;;16.60;99.90;;;;;;4989001;28;20557;-77
2022/06/04 03:28:51;;;;;;;7.87;7.17;;;16.50;99.90;;;;;;4981483;28;20953;-77
2022/06/04 03:31:37;;;;;;;13.27;6.43;;;16.50;99.90;;;;;;4984281;28;20957;-77
2022/06/04 03:34:22;;;;;;;9.17;7.20;;;16.40;99.90;;;;;;4989085;28;20424;-77
2022/06/04 03:37:08;;;;;;;12.03;7.87;;;16.30;99.90;;;;;;4987868;28;20440;-77
2022/06/04 03:39:54;;;;;;;8.90;7.27;;;16.30;99.90;;;;;;4980686;28;20576;-77
2022/06/04 03:42:41;;;;;;;10.10;7.53;;;16.30;99.90;;;;;;4989217;28;20458;-77
2022/06/04 03:45:27;;;;;;;8.90;7.60;;;16.30;99.90;;;;;;4986472;28;20954;-77
2022/06/04 03:48:13;;;;;;;8.63;6.43;;;16.40;99.90;;;;;;4985695;28;20509;-77
2022/06/04 03:50:58;;;;;;;11.13;7.30;;;16.50;99.90;;;;;;4990564;28;20476;-78
2022/06/04 03:53:44;;;;;;;15.37;7.77;;;16.40;99.90;;;;;;4988796;28;20437;-77
2022/06/04 03:56:30;;;;;;;10.17;7.60;;;16.50;99.90;;;;;;4989362;28;20460;-77
2022/06/04 03:59:17;;;;;;;10.17;7.43;;;16.50;99.90;;;;;;4985878;28;20960;-77
2022/06/04 04:02:04;;;;;;;7.57;6.87;;;16.40;99.90;;;;;;4990530;28;20491;-77
2022/06/04 04:04:49;;;;;;;10.33;8.30;;;16.30;99.90;;;;;;4988290;28;20450;-77
2022/06/04 04:07:35;;;;;;;12.00;8.13;;;16.30;99.90;;;;;;4986433;28;20521;-77
2022/06/04 04:10:22;;;;;;;12.20;7.70;;;16.30;99.90;;;;;;4986762;28;20918;-77
2022/06/04 04:13:08;;;;;;;11.63;7.30;;;16.30;99.90;;;;;;4993800;28;20535;-77
2022/06/04 04:15:56;;;;;;;8.87;7.20;;;16.40;99.90;;;;;;4994012;28;20552;-77
2022/06/04 04:18:42;;;;;;;10.90;8.57;;;16.40;99.90;;;;;;4987241;28;20441;-77
2022/06/04 04:21:27;;;;;;;8.80;7.90;;;16.40;99.90;;;;;;4992734;28;20812;-77
2022/06/04 04:24:14;;;;;;;10.47;7.40;;;16.30;99.90;;;;;;4988597;28;20824;-77
2022/06/04 04:26:59;;;;;;;7.90;7.10;;;16.40;99.90;;;;;;4990140;28;21119;-77
2022/06/04 04:29:45;;;;;;;8.93;7.77;;;16.50;99.90;;;;;;4992058;28;20513;-77
2022/06/04 04:32:33;;;;;;;9.50;7.53;;;16.40;99.90;;;;;;4992376;28;20446;-77
2022/06/04 04:35:20;;;;;;;14.37;8.40;;;16.50;99.90;;;;;;4988750;28;20453;-77
2022/06/04 04:38:06;;;;;;;9.20;7.07;;;16.40;99.90;;;;;;4988305;28;20580;-77
2022/06/04 04:40:51;;;;;;;9.97;8.50;;;16.60;99.90;;;;;;4993058;28;20824;-78
2022/06/04 04:43:37;;;;;;;30.60;11.10;;;16.60;99.90;;;;;;4992875;28;20485;-77
2022/06/04 04:46:23;;;;;;;18.03;9.50;;;16.50;99.90;;;;;;4988610;28;20580;-77
2022/06/04 04:49:11;;;;;;;9.10;8.03;;;16.60;99.90;;;;;;4988982;28;20441;-77
2022/06/04 04:51:56;;;;;;;11.73;9.57;;;16.60;99.90;;;;;;4993965;28;20497;-77
2022/06/04 04:54:42;;;;;;;13.90;10.83;;;16.70;99.90;;;;;;4992060;28;20457;-77
2022/06/04 04:57:28;;;;;;;12.67;10.37;;;16.90;99.90;;;;;;4982800;28;20496;-76
2022/06/04 05:00:15;;;;;;;13.63;11.30;;;17.00;99.90;;;;;;4987357;28;20616;-78
2022/06/04 05:03:02;;;;;;;22.53;12.83;;;17.10;99.90;;;;;;4995756;28;20424;-77
2022/06/04 05:05:57;;;;;;;14.10;12.20;;;17.20;99.90;;;;;;5009037;28;20474;-78
2022/06/04 05:08:44;;;;;;;12.30;11.03;;;17.20;99.90;;;;;;4986254;28;21006;-77
2022/06/04 05:11:32;;;;;;;8.90;8.10;;;17.30;99.90;;;;;;4992040;28;20499;-77
2022/06/04 05:14:17;;;;;;;10.93;9.63;;;17.40;99.90;;;;;;4987681;28;20921;-77
2022/06/04 05:17:03;;;;;;;12.87;9.20;;;17.50;99.90;;;;;;4989336;28;20473;-77
2022/06/04 05:19:49;;;;;;;10.57;8.57;;;17.60;99.90;;;;;;4991100;28;20644;-76
2022/06/04 05:22:36;;;;;;;10.70;9.70;;;17.50;99.90;;;;;;4990141;28;20963;-77
2022/06/04 05:25:22;;;;;;;13.73;10.37;;;17.60;99.90;;;;;;4991558;28;20955;-77
2022/06/04 05:28:08;;;;;;;9.80;8.90;;;17.70;99.90;;;;;;4988902;28;20454;-77
2022/06/04 05:30:54;;;;;;;10.43;9.07;;;17.70;99.90;;;;;;4988538;28;20465;-77
2022/06/04 05:33:40;;;;;;;11.40;9.10;;;17.70;99.90;;;;;;4992258;28;20501;-77
2022/06/04 05:36:25;;;;;;;9.00;8.20;;;17.80;99.90;;;;;;4985988;28;20485;-77
2022/06/04 05:39:13;;;;;;;10.87;9.23;;;18.00;99.90;;;;;;4990492;28;20812;-77
2022/06/04 05:41:59;;;;;;;12.33;9.70;;;18.00;99.90;;;;;;4993388;28;20508;-78
2022/06/04 05:44:45;;;;;;;10.40;9.23;;;18.00;99.90;;;;;;4996528;28;20504;-77
2022/06/04 05:47:30;;;;;;;11.07;9.97;;;18.10;99.90;;;;;;4988266;28;20877;-78
2022/06/04 05:50:16;;;;;;;11.57;9.37;;;18.30;99.90;;;;;;4991286;28;20469;-77
2022/06/04 05:53:02;;;;;;;9.77;8.87;;;18.40;99.90;;;;;;4989728;28;20433;-77
2022/06/04 05:55:49;;;;;;;10.30;9.20;;;18.50;99.90;;;;;;4993960;28;20549;-77
2022/06/04 05:58:35;;;;;;;10.10;9.13;;;18.50;99.90;;;;;;4993612;28;21155;-77
2022/06/04 06:01:22;;;;;;;10.70;9.40;;;18.60;99.90;;;;;;4991367;28;20448;-78
2022/06/04 06:04:10;;;;;;;11.10;9.57;;;18.60;99.90;;;;;;4993316;28;20564;-77
2022/06/04 06:06:58;;;;;;;10.67;9.57;;;18.70;99.90;;;;;;4987467;28;20560;-77
2022/06/04 06:09:44;;;;;;;11.90;9.30;;;18.70;99.90;;;;;;4991228;28;20466;-77
2022/06/04 06:12:31;;;;;;;8.97;8.10;;;18.70;99.90;;;;;;4994183;28;20420;-76
2022/06/04 06:15:18;;;;;;;10.53;9.43;;;18.90;99.90;;;;;;4990665;28;20446;-76
2022/06/04 06:18:05;;;;;;;9.60;8.67;;;19.00;99.90;;;;;;4991518;28;20454;-76
2022/06/04 06:20:51;;;;;;;15.90;8.57;;;19.10;99.90;;;;;;4997108;28;20451;-76
2022/06/04 06:23:37;;;;;;;11.20;9.20;;;19.20;99.90;;;;;;4992838;28;20458;-76
2022/06/04 06:26:25;;;;;;;11.57;9.17;;;19.20;99.90;;;;;;4988326;28;20448;-75
2022/06/04 06:29:12;;;;;;;11.13;9.70;;;19.20;99.90;;;;;;4987599;28;20814;-76
2022/06/04 06:32:00;;;;;;;8.83;7.93;;;19.10;99.90;;;;;;4989296;28;20582;-76
2022/06/04 06:34:46;;;;;;;9.33;8.10;;;19.20;99.90;;;;;;4986709;28;20421;-76
2022/06/04 06:37:32;;;;;;;12.23;8.73;;;19.30;99.90;;;;;;4982621;28;20486;-76
2022/06/04 06:40:18;;;;;;;9.37;7.77;;;19.30;99.90;;;;;;4987900;28;20445;-76
2022/06/04 06:43:04;;;;;;;12.07;8.00;;;19.30;99.90;;;;;;4987955;28;20495;-76
2022/06/04 06:45:51;;;;;;;9.83;8.70;;;19.40;99.90;;;;;;4992551;28;20301;-76
2022/06/04 06:48:38;;;;;;;9.60;8.70;;;19.50;99.90;;;;;;4994267;28;21138;-76
2022/06/04 06:51:26;;;;;;;8.80;7.90;;;19.50;99.90;;;;;;4998090;28;20620;-76
2022/06/04 06:54:12;;;;;;;15.07;8.03;;;19.60;99.90;;;;;;4989685;28;20453;-76
2022/06/04 06:56:58;;;;;;;8.60;7.70;;;19.60;99.90;;;;;;4995936;28;20799;-75
2022/06/04 06:59:46;;;;;;;8.27;6.70;;;19.70;99.90;;;;;;4996606;28;20436;-76
2022/06/04 07:02:33;;;;;;;15.60;6.90;;;19.70;99.90;;;;;;4989276;28;21013;-76
2022/06/04 07:05:18;;;;;;;8.40;7.60;;;19.80;99.90;;;;;;4991664;28;20425;-76
2022/06/04 07:08:05;;;;;;;12.70;6.10;;;19.70;99.90;;;;;;4992381;28;20436;-76
2022/06/04 07:10:51;;;;;;;7.73;7.03;;;19.80;99.90;;;;;;4997616;28;20456;-76
2022/06/04 07:13:36;;;;;;;10.50;8.30;;;19.80;99.90;;;;;;4993282;28;20582;-76
2022/06/04 07:16:23;;;;;;;9.40;7.40;;;19.90;99.90;;;;;;4986039;28;20586;-75
2022/06/04 07:19:11;;;;;;;6.97;6.10;;;20.00;99.90;;;;;;4992211;28;20970;-76
2022/06/04 07:21:58;;;;;;;6.10;5.50;;;20.00;99.90;;;;;;5001877;28;20461;-76
2022/06/04 07:24:43;;;;;;;8.60;5.83;;;20.10;99.90;;;;;;4992841;28;20499;-77
2022/06/04 07:27:29;;;;;;;6.80;6.10;;;20.20;99.90;;;;;;4997719;28;20480;-76
2022/06/04 07:30:15;;;;;;;8.90;6.00;;;20.30;99.90;;;;;;4993621;28;20447;-76
2022/06/04 07:33:00;;;;;;;6.13;5.00;;;20.40;99.90;;;;;;4996548;28;20445;-76
2022/06/04 07:35:51;;;;;;;5.50;5.00;;;20.50;99.90;;;;;;4988308;28;20999;-76
2022/06/04 07:38:37;;;;;;;6.47;5.90;;;20.50;99.90;;;;;;4989847;28;21006;-77
2022/06/04 07:41:25;;;;;;;9.40;6.27;;;20.60;99.90;;;;;;4996592;28;20561;-77
2022/06/04 07:44:12;;;;;;;8.50;6.17;;;20.50;99.90;;;;;;4989660;28;20548;-76
2022/06/04 07:46:58;;;;;;;7.17;5.53;;;20.60;99.90;;;;;;5000659;28;20474;-76
2022/06/04 07:49:44;;;;;;;7.67;6.20;;;20.60;99.90;;;;;;4997902;28;20500;-75
2022/06/04 07:52:31;;;;;;;7.10;6.13;;;20.60;99.90;;;;;;4996478;28;20825;-76
2022/06/04 07:55:17;;;;;;;10.10;6.60;;;20.60;99.90;;;;;;4984302;28;20516;-76
2022/06/04 07:58:02;;;;;;;7.27;6.57;;;20.60;99.90;;;;;;5027341;22;20552;-86
2022/06/04 08:00:54;;;;;;;8.67;6.20;;;20.70;99.90;;;;;;5019788;28;20484;-85
2022/06/04 08:03:40;;;;;;;5.23;4.73;;;20.70;99.90;;;;;;5019750;28;20444;-84
2022/06/04 08:06:25;;;;;;;5.97;5.07;;;20.70;99.90;;;;;;5013042;28;21016;-85
2022/06/04 08:09:12;;;;;;;12.87;8.37;;;20.80;99.90;;;;;;5015236;28;20476;-85
2022/06/04 08:11:58;;;;;;;8.90;5.70;;;20.90;99.90;;;;;;5010812;28;20511;-85
2022/06/04 08:14:45;;;;;;;5.93;5.30;;;21.00;99.90;;;;;;5011782;28;20437;-85
2022/06/04 08:17:31;;;;;;;7.00;6.10;;;21.00;99.90;;;;;;5019688;28;20460;-85
2022/06/04 08:20:18;;;;;;;8.50;6.70;;;21.10;99.90;;;;;;5019653;28;20982;-84
2022/06/04 08:23:04;;;;;;;9.87;7.23;;;21.10;99.90;;;;;;5005881;28;20447;-85
2022/06/04 08:25:52;;;;;;;6.47;5.70;;;21.10;99.90;;;;;;4993000;28;20605;-84
2022/06/04 08:28:39;;;;;;;6.60;6.00;;;21.10;99.90;;;;;;5010372;28;20552;-85
2022/06/04 08:31:25;;;;;;;10.00;6.30;;;21.20;99.90;;;;;;4999288;28;20469;-86
2022/06/04 08:34:11;;;;;;;7.17;6.20;;;21.30;99.90;;;;;;5010317;28;20403;-85
2022/06/04 08:36:56;;;;;;;6.67;6.03;;;21.30;99.90;;;;;;5007781;28;20441;-85
2022/06/04 08:39:42;;;;;;;5.97;5.37;;;21.40;99.90;;;;;;5000992;28;20432;-85
2022/06/04 08:42:50;;;;;;;9.13;4.90;;;21.50;99.90;;;;;;5004621;28;20520;-85
2022/06/04 08:45:38;;;;;;;5.23;4.73;;;21.50;99.90;;;;;;5001645;28;20541;-85
2022/06/04 08:48:30;;;;;;;6.67;4.17;;;21.50;99.90;;;;;;5009722;28;20508;-85
2022/06/04 08:51:23;;;;;;;6.80;4.70;;;21.50;99.90;;;;;;5009478;28;20473;-85
2022/06/04 08:57:33;;;;;;;5.40;4.13;;;21.70;99.90;;;;;;4957238;28;1204142;-86
2022/06/04 09:00:26;;;;;;;4.63;4.20;;;21.80;99.90;;;;;;4994451;28;20253;-86
2022/06/04 09:03:14;;;;;;;5.10;4.63;;;21.90;99.90;;;;;;4994610;28;20409;-85
2022/06/04 09:06:26;;;;;;;5.03;4.53;;;22.10;99.90;;;;;;4996525;28;20436;-85
2022/06/04 09:09:16;;;;;;;8.70;5.10;;;22.30;99.90;;;;;;5005699;28;20460;-86
2022/06/04 09:12:09;;;;;;;7.20;4.37;;;22.30;99.90;;;;;;5014213;28;20962;-85
2022/06/04 09:15:00;;;;;;;6.73;4.50;;;22.40;99.90;;;;;;5013474;28;20433;-85
2022/06/04 09:17:50;;;;;;;5.07;4.43;;;22.40;99.90;;;;;;5005180;28;20426;-86
2022/06/04 09:20:40;;;;;;;5.63;4.83;;;22.40;99.90;;;;;;4993973;28;20470;-86
2022/06/04 09:23:42;;;;;;;4.70;4.20;;;22.40;99.90;;;;;;5021831;28;20562;-87
2022/06/04 09:26:33;;;;;;;5.33;4.83;;;22.40;99.90;;;;;;5004162;28;20453;-86
2022/06/04 09:29:52;;;;;;;10.70;5.53;;;22.40;99.90;;;;;;5008080;28;20445;-86
2022/06/04 09:32:51;;;;;;;7.40;5.90;;;22.40;99.90;;;;;;5013446;28;20449;-86
2022/06/04 09:35:40;;;;;;;7.20;5.10;;;22.40;99.90;;;;;;5007064;28;20906;-85
2022/06/04 09:38:29;;;;;;;5.77;4.90;;;22.30;99.90;;;;;;4993718;28;20430;-85
2022/06/04 09:41:22;;;;;;;7.33;5.40;;;22.40;99.90;;;;;;4994059;28;20470;-86
2022/06/04 09:44:14;;;;;;;5.10;4.60;;;22.30;99.90;;;;;;4993685;28;20464;-86
2022/06/04 09:47:11;;;;;;;7.80;5.03;;;22.20;99.90;;;;;;4994610;28;20457;-86
2022/06/04 09:50:01;;;;;;;6.43;5.83;;;22.10;99.90;;;;;;4993936;28;20805;-86
2022/06/04 09:52:56;;;;;;;7.23;6.07;;;22.10;99.90;;;;;;5011030;28;20432;-85
2022/06/04 09:55:47;;;;;;;8.60;5.67;;;22.00;99.90;;;;;;5007703;28;20440;-85
2022/06/04 09:58:34;;;;;;;6.80;5.07;;;21.90;99.90;;;;;;5005907;28;20804;-85
2022/06/04 10:01:25;;;;;;;6.10;5.50;;;21.90;99.90;;;;;;5013355;28;20477;-86
2022/06/04 10:04:15;;;;;;;5.80;5.20;;;21.90;99.90;;;;;;5013028;28;20449;-86
2022/06/04 10:07:08;;;;;;;9.43;5.40;;;21.80;99.90;;;;;;5003960;28;20421;-86
2022/06/04 10:09:57;;;;;;;10.23;6.00;;;21.70;99.90;;;;;;5012302;28;20676;-87
2022/06/04 10:15:50;;;;;;;7.37;5.40;;;21.60;99.90;;;;;;5003067;28;20489;-86
2022/06/04 10:18:36;;;;;;;6.83;6.13;;;21.70;99.90;;;;;;4997350;28;20426;-86
2022/06/04 10:21:25;;;;;;;7.20;5.60;;;21.70;99.90;;;;;;4993339;28;20481;-85
2022/06/04 10:24:22;;;;;;;6.30;5.80;;;21.70;99.90;;;;;;5013120;28;20447;-85
2022/06/04 10:27:26;;;;;;;8.23;5.47;;;21.70;99.90;;;;;;5009243;28;20435;-86
2022/06/04 10:30:24;;;;;;;12.23;5.90;;;21.70;99.90;;;;;;5009487;28;20481;-86
2022/06/04 10:33:21;;;;;;;7.13;6.47;;;21.70;99.90;;;;;;4992965;28;20430;-85
2022/06/04 10:36:27;;;;;;;7.63;6.30;;;21.60;99.90;;;;;;4992761;28;20778;-86
2022/06/04 10:39:32;;;;;;;7.60;5.97;;;21.60;99.90;;;;;;5005738;28;21102;-86
2022/06/04 10:42:30;;;;;;;7.57;5.70;;;21.60;99.90;;;;;;5012565;28;20477;-85
2022/06/04 10:45:26;;;;;;;8.40;6.70;;;21.60;99.90;;;;;;5009754;28;20424;-86
2022/06/04 10:48:29;;;;;;;11.03;6.87;;;21.60;99.90;;;;;;5008740;28;20415;-86
2022/06/04 10:51:27;;;;;;;8.60;6.23;;;21.70;99.90;;;;;;4998037;28;20421;-85
2022/06/04 10:54:19;;;;;;;7.50;6.80;;;21.70;99.90;;;;;;5010956;28;20520;-85
2022/06/04 10:57:15;;;;;;;8.70;7.90;;;21.80;99.90;;;;;;5009128;28;21482;-85
2022/06/04 11:00:05;;;;;;;16.43;8.53;;;21.90;99.90;;;;;;5004575;28;20468;-84
2022/06/04 11:02:57;;;;;;;9.17;7.97;;;21.90;99.90;;;;;;5013578;28;20875;-85
2022/06/04 11:05:47;;;;;;;7.93;7.23;;;22.00;99.90;;;;;;5011316;28;20508;-85
2022/06/04 11:08:39;;;;;;;8.23;7.43;;;22.10;99.90;;;;;;5004846;28;20933;-85
2022/06/04 11:11:32;;;;;;;10.67;7.40;;;22.20;99.90;;;;;;5008340;28;20420;-85
2022/06/04 11:14:28;;;;;;;7.93;7.10;;;22.40;99.90;;;;;;5012239;28;20445;-85
2022/06/04 11:17:20;;;;;;;8.00;7.20;;;22.40;99.90;;;;;;5006495;28;20450;-85
2022/06/04 11:20:12;;;;;;;6.40;5.80;;;22.50;99.90;;;;;;5010640;28;20481;-85
2022/06/04 11:23:17;;;;;;;7.40;6.60;;;22.50;99.90;;;;;;5008831;28;20449;-85
2022/06/04 11:26:07;;;;;;;9.07;6.90;;;22.60;99.90;;;;;;5009587;28;20423;-85
2022/06/04 11:28:54;;;;;;;5.87;5.23;;;22.70;99.90;;;;;;5006947;28;20478;-85
2022/06/04 11:31:51;;;;;;;6.80;6.20;;;22.80;99.90;;;;;;5012211;28;20428;-86
2022/06/04 11:35:02;;;;;;;7.23;6.47;;;23.00;99.90;;;;;;5010598;28;20453;-85
2022/06/04 11:38:17;;;;;;;7.70;6.30;;;23.00;99.90;;;;;;5008888;28;20540;-84
2022/06/04 11:41:18;;;;;;;7.10;6.50;;;23.10;99.90;;;;;;5009455;28;21020;-84
2022/06/04 11:44:32;;;;;;;6.67;6.07;;;23.20;99.90;;;;;;5009645;28;20483;-85
2022/06/04 11:47:31;;;;;;;8.40;7.60;;;23.20;99.90;;;;;;5008031;28;20820;-85
2022/06/04 11:50:25;;;;;;;7.50;6.70;;;23.20;99.90;;;;;;5008561;28;20536;-85
2022/06/04 11:53:20;;;;;;;6.83;6.00;;;23.20;99.90;;;;;;5011181;28;20441;-85
2022/06/04 11:56:11;;;;;;;9.53;6.83;;;23.30;99.90;;;;;;5011139;28;20825;-85
2022/06/04 11:59:18;;;;;;;9.40;6.37;;;23.40;99.90;;;;;;5006621;28;20472;-84
2022/06/04 12:02:14;;;;;;;8.53;6.30;;;23.60;99.90;;;;;;5010711;28;20560;-85
2022/06/04 12:05:15;;;;;;;8.50;6.63;;;23.80;99.90;;;;;;5009068;28;20444;-84
2022/06/04 12:08:06;;;;;;;7.57;6.77;;;23.90;99.90;;;;;;5002122;28;20460;-85
2022/06/04 12:11:07;;;;;;;8.83;6.97;;;24.10;99.90;;;;;;5013724;28;20488;-85
2022/06/04 12:13:59;;;;;;;6.10;5.50;;;24.30;99.90;;;;;;5010843;28;20455;-84
2022/06/04 12:16:52;;;;;;;6.50;5.90;;;24.40;99.90;;;;;;5006540;28;20614;-84
2022/06/04 12:26:03;;;;;;;9.50;6.20;;;24.90;99.90;;;;;;5007642;28;20464;-84
2022/06/04 12:28:49;;;;;;;7.80;5.43;;;25.00;99.90;;;;;;5009808;28;20478;-85
2022/06/04 12:31:37;;;;;;;7.97;5.47;;;25.00;99.90;;;;;;5011068;28;20437;-85
2022/06/04 12:34:28;;;;;;;6.90;6.20;;;25.10;99.90;;;;;;5011154;28;20463;-84
2022/06/04 12:37:24;;;;;;;7.57;5.90;;;25.20;99.90;;;;;;5006425;28;20494;-85
2022/06/04 12:40:30;;;;;;;5.80;5.10;;;25.30;99.90;;;;;;5013960;28;20469;-85
2022/06/04 12:43:33;;;;;;;5.80;5.30;;;25.30;99.90;;;;;;5013272;28;20446;-85
2022/06/04 12:46:33;;;;;;;5.90;4.50;;;25.20;99.90;;;;;;5007701;28;21052;-85
2022/06/04 12:49:37;;;;;;;7.80;5.00;;;25.30;99.90;;;;;;5012447;28;20473;-85
2022/06/04 12:52:31;;;;;;;6.43;4.70;;;25.40;99.90;;;;;;5004645;28;20989;-85
2022/06/04 12:55:25;;;;;;;7.87;4.77;;;25.50;99.90;;;;;;5010014;28;20456;-85
2022/06/04 12:58:29;;;;;;;5.53;5.03;;;25.70;99.90;;;;;;5011427;28;20537;-85
2022/06/04 13:01:26;;;;;;;5.10;4.60;;;25.70;99.90;;;;;;5014709;28;20522;-84
2022/06/04 13:04:25;;;;;;;5.00;4.50;;;25.50;99.90;;;;;;5014286;28;20548;-85
2022/06/04 13:07:21;;;;;;;5.90;4.47;;;25.50;99.90;;;;;;5005465;28;20597;-85
2022/06/04 13:10:19;;;;;;;4.90;4.20;;;25.50;99.90;;;;;;5010591;28;20537;-86
2022/06/04 13:13:18;;;;;;;5.10;4.30;;;25.70;99.90;;;;;;4997567;28;20457;-86
2022/06/04 13:16:15;;;;;;;5.27;4.50;;;25.70;98.90;;;;;;5002900;28;20493;-86
2022/06/04 13:19:25;;;;;;;7.53;5.03;;;25.60;99.90;;;;;;5006895;28;20528;-85
2022/06/04 13:22:22;;;;;;;7.43;5.30;;;25.60;97.10;;;;;;5006408;28;20473;-86
2022/06/04 13:25:15;;;;;;;4.93;4.43;;;25.70;99.20;;;;;;5004613;28;20777;-86
2022/06/04 13:28:01;;;;;;;6.07;5.20;;;25.90;99.30;;;;;;5004166;28;20934;-86
2022/06/04 13:30:52;;;;;;;6.30;5.20;;;26.10;99.90;;;;;;5005070;28;20507;-85
2022/06/04 13:33:37;;;;;;;6.20;4.43;;;26.40;98.10;;;;;;5009179;28;20434;-86
2022/06/04 13:36:26;;;;;;;6.00;5.40;;;26.70;94.30;;;;;;5002276;28;20457;-85
2022/06/04 13:39:16;;;;;;;5.93;4.77;;;27.00;94.80;;;;;;5004885;28;20537;-86
2022/06/04 13:42:12;;;;;;;4.93;4.43;;;27.10;90.90;;;;;;5002061;28;20470;-86
2022/06/04 13:45:00;;;;;;;5.03;4.53;;;27.00;89.20;;;;;;5010833;28;20434;-85
2022/06/04 13:47:55;;;;;;;5.37;4.87;;;27.00;90.70;;;;;;5008764;28;20890;-85
2022/06/04 13:50:49;;;;;;;5.90;4.53;;;27.10;89.30;;;;;;5020018;22;20865;-74
2022/06/04 13:53:46;;;;;;;5.27;4.77;;;27.30;80.80;;;;;;5015135;28;20446;-73
2022/06/04 13:56:41;;;;;;;5.57;4.00;;;27.30;78.80;;;;;;5021587;22;20477;-76
2022/06/04 13:59:30;;;;;;;7.20;4.50;;;27.50;81.00;;;;;;5032483;28;20443;-77
2022/06/04 14:02:18;;;;;;;6.50;3.97;;;27.80;78.40;;;;;;5024526;28;20948;-76
2022/06/04 14:08:21;;;;;;;7.23;4.30;;;28.10;70.90;;;;;;5046212;28;20562;-77
2022/06/04 14:11:17;;;;;;;6.80;4.00;;;28.20;64.40;;;;;;5046226;28;20585;-76
2022/06/04 14:14:18;;;;;;;4.40;3.73;;;28.10;64.30;;;;;;5043384;28;20423;-77
2022/06/04 14:17:17;;;;;;;4.40;3.80;;;27.80;64.30;;;;;;5046498;28;20681;-77
2022/06/04 14:20:17;;;;;;;5.73;3.83;;;27.60;68.70;;;;;;5049431;28;20487;-76
2022/06/04 14:23:19;;;;;;;4.53;3.30;;;27.80;68.00;;;;;;5049011;28;20462;-77
2022/06/04 14:26:17;;;;;;;6.00;3.47;;;27.90;63.80;;;;;;5043297;28;20451;-76
2022/06/04 14:29:15;;;;;;;4.73;3.20;;;27.70;60.60;;;;;;5048216;28;20439;-78
2022/06/04 14:32:10;;;;;;;4.30;3.40;;;27.50;62.90;;;;;;5047371;28;20797;-77
2022/06/04 14:34:57;;;;;;;4.23;3.13;;;27.60;63.70;;;;;;5028729;28;20534;-76
2022/06/04 14:37:46;;;;;;;3.80;2.83;;;27.60;65.00;;;;;;5037706;28;20471;-75
2022/06/04 14:40:38;;;;;;;5.33;2.77;;;27.60;62.70;;;;;;5042139;28;20860;-74
2022/06/04 14:43:53;;;;;;;5.33;3.00;;;27.50;62.00;;;;;;5042123;28;20487;-74
2022/06/04 14:46:56;;;;;;;3.40;3.07;;;27.50;60.50;;;;;;5042657;28;20510;-74
2022/06/04 14:50:09;;;;;;;5.43;3.00;;;27.60;62.30;;;;;;5045452;28;20492;-74
2022/06/04 14:52:58;;;;;;;4.37;3.27;;;27.80;58.20;;;;;;5045847;28;20626;-74
2022/06/04 14:56:02;;;;;;;6.17;3.83;;;27.90;57.90;;;;;;5043520;28;20478;-74
2022/06/04 14:59:15;;;;;;;3.83;3.07;;;28.10;58.30;;;;;;5043248;28;20490;-74
2022/06/04 15:02:14;;;;;;;3.83;3.03;;;28.30;54.30;;;;;;5039408;28;20479;-74
2022/06/04 15:05:29;;;;;;;6.40;3.10;;;28.30;52.40;;;;;;5038762;28;21060;-74
2022/06/04 15:08:27;;;;;;;3.87;3.40;;;27.90;47.20;;;;;;5041050;28;20471;-74
2022/06/04 15:11:42;;;;;;;4.93;3.20;;;28.00;56.60;;;;;;5037746;28;20932;-74